createdAt,value
2017-12-23T00:01:27.898Z,2.34
2017-12-23T00:03:55.448Z,2.38
2017-12-23T00:06:23.018Z,2.50
2017-12-23T00:08:50.576Z,2.60
2017-12-23T00:11:18.161Z,2.67
2017-12-23T00:13:45.745Z,2.69
2017-12-23T00:16:13.319Z,2.41
2017-12-23T00:18:40.878Z,2.35
2017-12-23T00:21:08.873Z,2.29
2017-12-23T00:23:36.489Z,2.21
2017-12-23T00:26:04.043Z,2.31
2017-12-23T00:28:31.604Z,2.51
2017-12-23T00:30:59.165Z,2.59
2017-12-23T00:33:26.736Z,2.52
2017-12-23T00:35:54.353Z,2.51
2017-12-23T00:38:21.917Z,2.37
2017-12-23T00:40:49.505Z,2.32
2017-12-23T00:43:17.085Z,2.63
2017-12-23T00:45:44.655Z,2.59
2017-12-23T00:48:12.252Z,2.53
2017-12-23T00:50:40.730Z,2.34
2017-12-23T00:53:08.433Z,2.12
2017-12-23T00:55:35.985Z,2.37
2017-12-23T00:58:03.549Z,2.55
2017-12-23T01:00:31.120Z,2.79
2017-12-23T01:02:58.655Z,2.86
2017-12-23T01:05:26.330Z,2.92
2017-12-23T01:07:53.873Z,3.06
2017-12-23T01:10:21.422Z,3.14
2017-12-23T01:12:48.994Z,3.11
2017-12-23T01:15:16.590Z,3.18
2017-12-23T01:17:44.190Z,3.34
2017-12-23T01:20:11.812Z,3.25
2017-12-23T01:22:39.389Z,3.28
2017-12-23T01:25:07.042Z,3.37
2017-12-23T01:27:34.625Z,3.30
2017-12-23T01:30:02.203Z,3.22
2017-12-23T01:32:29.783Z,3.16
2017-12-23T01:34:57.365Z,3.20
2017-12-23T01:37:24.913Z,3.26
2017-12-23T01:39:52.507Z,3.27
2017-12-23T01:42:20.106Z,3.31
2017-12-23T01:44:47.687Z,3.39
2017-12-23T01:47:15.288Z,3.44
2017-12-23T01:49:42.852Z,3.36
2017-12-23T01:52:10.616Z,3.31
2017-12-23T01:54:38.201Z,3.32
2017-12-23T01:57:05.937Z,3.18
2017-12-23T01:59:33.470Z,3.07
2017-12-23T02:02:01.066Z,3.33
2017-12-23T02:04:28.620Z,3.43
2017-12-23T02:06:56.175Z,3.42
2017-12-23T02:09:23.767Z,3.44
2017-12-23T02:11:51.341Z,3.38
2017-12-23T02:14:18.893Z,3.40
2017-12-23T02:16:46.431Z,3.44
2017-12-23T02:19:14.449Z,3.45
2017-12-23T02:21:42.036Z,3.62
2017-12-23T02:24:09.737Z,3.59
2017-12-23T02:26:37.295Z,3.64
2017-12-23T02:29:04.888Z,3.71
2017-12-23T02:31:32.485Z,3.71
2017-12-23T02:34:00.018Z,3.72
2017-12-23T02:36:27.577Z,3.74
2017-12-23T02:38:55.149Z,3.71
2017-12-23T02:41:22.705Z,3.81
2017-12-23T02:43:50.261Z,3.82
2017-12-23T02:46:17.834Z,3.90
2017-12-23T02:48:45.800Z,3.92
2017-12-23T02:51:13.847Z,3.99
2017-12-23T02:53:41.412Z,3.95
2017-12-23T02:56:08.987Z,3.94
2017-12-23T02:58:36.601Z,4.01
2017-12-23T03:01:04.180Z,4.07
2017-12-23T03:03:31.752Z,4.09
2017-12-23T03:05:59.327Z,4.05
2017-12-23T03:08:26.897Z,4.03
2017-12-23T03:10:54.437Z,4.08
2017-12-23T03:13:22.080Z,4.01
2017-12-23T03:15:49.634Z,3.98
2017-12-23T03:18:17.190Z,4.04
2017-12-23T03:20:44.771Z,4.09
2017-12-23T03:23:12.593Z,4.03
2017-12-23T03:25:40.242Z,4.06
2017-12-23T03:28:07.814Z,4.08
2017-12-23T03:30:35.384Z,4.06
2017-12-23T03:33:02.969Z,4.11
2017-12-23T03:35:30.700Z,4.10
2017-12-23T03:37:58.254Z,4.14
2017-12-23T03:40:25.849Z,4.13
2017-12-23T03:42:53.735Z,4.11
2017-12-23T03:45:21.804Z,4.21
2017-12-23T03:47:49.381Z,4.21
2017-12-23T03:50:17.027Z,4.22
2017-12-23T03:52:44.576Z,4.25
2017-12-23T03:55:12.469Z,4.25
2017-12-23T03:57:40.060Z,4.25
2017-12-23T04:00:07.953Z,4.25
2017-12-23T04:02:35.504Z,4.30
2017-12-23T04:05:03.078Z,4.29
2017-12-23T04:07:31.245Z,4.37
2017-12-23T04:09:58.773Z,4.31
2017-12-23T04:12:26.341Z,4.24
2017-12-23T04:14:53.881Z,4.30
2017-12-23T04:17:21.451Z,4.36
2017-12-23T04:19:49.026Z,4.30
2017-12-23T04:22:16.617Z,4.26
2017-12-23T04:24:44.155Z,4.21
2017-12-23T04:27:11.952Z,4.18
2017-12-23T04:29:39.511Z,4.13
2017-12-23T04:32:07.072Z,4.10
2017-12-23T04:34:34.620Z,4.07
2017-12-23T04:37:02.210Z,4.10
2017-12-23T04:39:30.314Z,4.12
2017-12-23T04:41:57.870Z,4.08
2017-12-23T04:44:25.438Z,4.08
2017-12-23T04:46:53.045Z,4.17
2017-12-23T04:49:20.624Z,4.09
2017-12-23T04:51:48.168Z,4.09
2017-12-23T04:54:15.738Z,4.08
2017-12-23T04:56:43.280Z,4.08
2017-12-23T04:59:10.836Z,4.07
2017-12-23T05:01:38.408Z,4.09
2017-12-23T05:04:05.955Z,4.13
2017-12-23T05:06:33.496Z,4.13
2017-12-23T05:09:01.098Z,4.11
2017-12-23T05:11:28.941Z,4.07
2017-12-23T05:13:56.572Z,4.09
2017-12-23T05:16:24.183Z,4.10
2017-12-23T05:18:51.731Z,4.12
2017-12-23T05:21:19.296Z,4.05
2017-12-23T05:23:46.911Z,4.12
2017-12-23T05:26:14.511Z,4.15
2017-12-23T05:28:42.065Z,4.18
2017-12-23T05:31:10.322Z,4.16
2017-12-23T05:33:37.890Z,4.20
2017-12-23T05:36:05.436Z,4.02
2017-12-23T05:38:33.021Z,4.15
2017-12-23T05:41:00.545Z,4.23
2017-12-23T05:43:28.093Z,4.23
2017-12-23T05:45:55.697Z,4.22
2017-12-23T05:48:23.270Z,4.25
2017-12-23T05:50:50.827Z,4.23
2017-12-23T05:53:18.398Z,4.22
2017-12-23T05:55:45.949Z,4.23
2017-12-23T05:58:13.522Z,4.26
2017-12-23T06:00:42.853Z,4.19
2017-12-23T06:03:10.680Z,4.09
2017-12-23T06:05:38.262Z,4.09
2017-12-23T06:08:05.837Z,4.10
2017-12-23T06:10:33.379Z,4.08
2017-12-23T06:13:00.933Z,4.06
2017-12-23T06:15:28.545Z,4.06
2017-12-23T06:17:56.091Z,4.11
2017-12-23T06:20:23.638Z,4.14
2017-12-23T06:22:51.221Z,4.14
2017-12-23T06:25:18.774Z,4.16
2017-12-23T06:27:46.308Z,4.15
2017-12-23T06:30:13.901Z,4.13
2017-12-23T06:32:41.439Z,4.15
2017-12-23T06:35:09.181Z,4.11
2017-12-23T06:37:36.932Z,4.09
2017-12-23T06:40:04.541Z,4.16
2017-12-23T06:42:32.100Z,4.16
2017-12-23T06:44:59.857Z,4.19
2017-12-23T06:47:27.509Z,4.18
2017-12-23T06:49:55.102Z,4.19
2017-12-23T06:52:23.719Z,4.19
2017-12-23T06:54:51.280Z,4.18
2017-12-23T06:57:18.865Z,4.23
2017-12-23T06:59:46.496Z,4.20
2017-12-23T07:02:14.068Z,4.20
2017-12-23T07:04:41.615Z,4.23
2017-12-23T07:07:15.288Z,4.17
2017-12-23T07:09:43.645Z,4.20
2017-12-23T07:15:01.377Z,4.22
2017-12-23T07:17:28.969Z,4.22
2017-12-23T07:19:56.539Z,4.21
2017-12-23T07:22:24.149Z,4.31
2017-12-23T07:24:53.668Z,4.31
2017-12-23T07:27:21.256Z,4.25
2017-12-23T07:29:49.566Z,4.22
2017-12-23T07:32:17.167Z,4.32
2017-12-23T07:34:44.754Z,4.28
2017-12-23T07:37:12.654Z,4.30
2017-12-23T07:39:40.342Z,4.35
2017-12-23T07:42:07.972Z,4.37
2017-12-23T07:44:35.521Z,4.43
2017-12-23T07:47:03.119Z,4.47
2017-12-23T07:49:30.732Z,4.46
2017-12-23T07:51:58.278Z,4.51
2017-12-23T07:54:25.849Z,4.59
2017-12-23T07:56:53.456Z,4.55
2017-12-23T07:59:21.116Z,4.61
2017-12-23T08:01:48.669Z,4.65
2017-12-23T08:04:16.377Z,4.68
2017-12-23T08:06:43.941Z,4.66
2017-12-23T08:09:11.556Z,4.65
2017-12-23T08:11:39.144Z,4.64
2017-12-23T08:14:06.679Z,4.68
2017-12-23T08:16:34.239Z,4.71
2017-12-23T08:19:01.820Z,4.71
2017-12-23T08:21:29.353Z,4.80
2017-12-23T08:23:56.943Z,4.72
2017-12-23T08:26:24.616Z,4.78
2017-12-23T08:28:52.173Z,4.79
2017-12-23T08:31:19.757Z,4.78
2017-12-23T08:33:47.330Z,4.91
2017-12-23T08:36:14.925Z,4.92
2017-12-23T08:38:42.456Z,4.88
2017-12-23T08:41:10.364Z,4.94
2017-12-23T08:43:37.986Z,4.93
2017-12-23T08:46:05.536Z,4.90
2017-12-23T08:48:33.136Z,4.87
2017-12-23T08:51:00.679Z,4.88
2017-12-23T08:53:28.220Z,4.87
2017-12-23T08:55:55.812Z,4.88
2017-12-23T08:58:23.367Z,4.91
2017-12-23T09:00:50.910Z,4.94
2017-12-23T09:03:18.515Z,4.90
2017-12-23T09:05:46.051Z,4.84
2017-12-23T09:08:13.606Z,4.85
2017-12-23T09:10:41.176Z,4.85
2017-12-23T09:13:08.786Z,4.91
2017-12-23T09:15:36.398Z,5.02
2017-12-23T09:18:04.169Z,4.98
2017-12-23T09:20:31.730Z,5.08
2017-12-23T09:22:59.274Z,5.07
2017-12-23T09:25:26.911Z,5.13
2017-12-23T09:27:54.463Z,5.15
2017-12-23T09:30:25.134Z,5.19
2017-12-23T09:32:52.687Z,5.22
2017-12-23T09:35:20.238Z,5.22
2017-12-23T09:37:47.807Z,5.23
2017-12-23T09:40:15.341Z,5.28
2017-12-23T09:42:42.892Z,5.33
2017-12-23T09:45:10.718Z,5.34
2017-12-23T09:47:38.284Z,5.35
2017-12-23T09:50:05.823Z,5.41
2017-12-23T09:52:33.406Z,5.36
2017-12-23T09:55:00.964Z,5.35
2017-12-23T09:57:36.310Z,5.44
2017-12-23T10:00:04.406Z,5.44
2017-12-23T10:02:31.937Z,5.41
2017-12-23T10:04:59.509Z,5.43
2017-12-23T10:07:27.097Z,5.45
2017-12-23T10:09:54.689Z,5.52
2017-12-23T10:12:22.233Z,5.52
2017-12-23T10:14:49.774Z,5.50
2017-12-23T10:17:17.397Z,5.52
2017-12-23T10:19:44.934Z,5.63
2017-12-23T10:22:12.507Z,5.69
2017-12-23T10:24:40.298Z,5.65
2017-12-23T10:27:08.075Z,5.72
2017-12-23T10:29:35.604Z,5.71
2017-12-23T10:32:03.198Z,5.78
2017-12-23T10:34:30.761Z,5.80
2017-12-23T10:36:58.341Z,5.81
2017-12-23T10:39:26.734Z,5.82
2017-12-23T10:41:54.277Z,5.80
2017-12-23T10:44:21.962Z,5.80
2017-12-23T10:46:49.508Z,5.83
2017-12-23T10:49:17.096Z,5.81
2017-12-23T10:51:44.657Z,5.80
2017-12-23T10:54:12.269Z,5.93
2017-12-23T10:56:40.025Z,5.95
2017-12-23T10:59:07.602Z,5.91
2017-12-23T11:01:35.475Z,5.95
2017-12-23T11:04:03.036Z,5.95
2017-12-23T11:06:30.575Z,5.95
2017-12-23T11:08:58.148Z,5.96
2017-12-23T11:11:25.714Z,5.99
2017-12-23T11:13:53.947Z,5.96
2017-12-23T11:16:21.525Z,5.90
2017-12-23T11:18:49.124Z,5.90
2017-12-23T11:21:17.713Z,5.96
2017-12-23T11:23:45.601Z,6.00
2017-12-23T11:26:13.147Z,6.09
2017-12-23T11:28:40.740Z,6.10
2017-12-23T11:31:09.029Z,6.12
2017-12-23T11:33:36.635Z,6.10
2017-12-23T11:36:06.326Z,6.07
2017-12-23T11:38:34.623Z,6.20
2017-12-23T11:41:02.882Z,6.22
2017-12-23T11:43:30.569Z,6.23
2017-12-23T11:45:58.141Z,6.25
2017-12-23T11:48:25.728Z,6.27
2017-12-23T11:50:53.350Z,6.25
2017-12-23T11:53:20.903Z,6.27
2017-12-23T11:55:48.531Z,6.28
2017-12-23T12:01:06.241Z,6.30
2017-12-23T12:03:33.802Z,6.33
2017-12-23T12:06:01.405Z,6.31
2017-12-23T12:08:28.981Z,6.34
2017-12-23T12:10:56.527Z,6.39
2017-12-23T12:13:24.212Z,6.42
2017-12-23T12:15:51.746Z,6.41
2017-12-23T12:18:19.301Z,6.43
2017-12-23T12:20:46.860Z,6.47
2017-12-23T12:23:14.426Z,6.49
2017-12-23T12:25:42.005Z,6.47
2017-12-23T12:28:09.601Z,6.55
2017-12-23T12:30:37.144Z,6.70
2017-12-23T12:33:04.891Z,6.79
2017-12-23T12:35:32.659Z,6.71
2017-12-23T12:38:00.194Z,6.55
2017-12-23T12:40:27.797Z,6.52
2017-12-23T12:42:55.389Z,6.50
2017-12-23T12:45:22.994Z,6.51
2017-12-23T12:47:50.565Z,6.61
2017-12-23T12:50:18.270Z,6.69
2017-12-23T12:52:45.849Z,6.85
2017-12-23T12:55:13.596Z,6.74
2017-12-23T12:57:41.170Z,6.83
2017-12-23T13:00:08.738Z,6.76
2017-12-23T13:02:36.308Z,6.79
2017-12-23T13:05:03.890Z,6.59
2017-12-23T13:07:31.470Z,6.55
2017-12-23T13:09:59.033Z,6.56
2017-12-23T13:12:26.568Z,6.77
2017-12-23T13:14:54.174Z,6.89
2017-12-23T13:17:21.765Z,6.93
2017-12-23T13:19:49.344Z,6.82
2017-12-23T13:22:16.977Z,6.77
2017-12-23T13:24:44.529Z,6.71
2017-12-23T13:27:12.380Z,6.66
2017-12-23T13:29:39.933Z,6.63
2017-12-23T13:32:07.522Z,6.60
2017-12-23T13:34:35.073Z,6.52
2017-12-23T13:37:02.680Z,6.49
2017-12-23T13:39:30.728Z,6.44
2017-12-23T13:41:58.373Z,6.38
2017-12-23T13:44:25.945Z,6.37
2017-12-23T13:46:53.493Z,6.35
2017-12-23T13:49:21.051Z,6.30
2017-12-23T13:51:48.631Z,6.26
2017-12-23T13:54:16.319Z,6.26
2017-12-23T13:56:43.865Z,6.23
2017-12-23T13:59:11.486Z,6.27
2017-12-23T14:01:39.102Z,6.26
2017-12-23T14:04:06.680Z,6.32
2017-12-23T14:06:34.248Z,6.31
2017-12-23T14:09:01.869Z,6.37
2017-12-23T14:11:29.533Z,6.45
2017-12-23T14:13:57.133Z,6.45
2017-12-23T14:16:24.717Z,6.45
2017-12-23T14:18:52.260Z,6.48
2017-12-23T14:21:20.122Z,6.49
2017-12-23T14:23:47.665Z,6.42
2017-12-23T14:26:15.576Z,6.41
2017-12-23T14:28:43.164Z,6.40
2017-12-23T14:31:11.302Z,6.41
2017-12-23T14:33:39.007Z,6.38
2017-12-23T14:36:06.594Z,6.35
2017-12-23T14:38:34.184Z,6.34
2017-12-23T14:41:01.814Z,6.37
2017-12-23T14:43:29.401Z,6.32
2017-12-23T14:45:56.960Z,6.33
2017-12-23T14:48:24.705Z,6.28
2017-12-23T14:50:52.292Z,6.28
2017-12-23T14:53:19.861Z,6.32
2017-12-23T14:55:47.404Z,6.34
2017-12-23T14:58:15.013Z,6.33
2017-12-23T15:00:42.600Z,6.32
2017-12-23T15:03:10.333Z,6.29
2017-12-23T15:05:37.980Z,6.26
2017-12-23T15:08:05.541Z,6.29
2017-12-23T15:10:33.153Z,6.31
2017-12-23T15:13:01.153Z,6.27
2017-12-23T15:15:28.707Z,6.30
2017-12-23T15:17:56.281Z,6.33
2017-12-23T15:20:23.959Z,6.32
2017-12-23T15:22:52.324Z,6.26
2017-12-23T15:25:19.910Z,6.28
2017-12-23T15:27:47.562Z,6.27
2017-12-23T15:30:15.140Z,6.30
2017-12-23T15:32:42.697Z,6.27
2017-12-23T15:35:10.427Z,6.29
2017-12-23T15:37:38.141Z,6.33
2017-12-23T15:40:05.684Z,6.31
2017-12-23T15:42:33.248Z,6.28
2017-12-23T15:45:00.797Z,6.29
2017-12-23T15:47:28.478Z,6.28
2017-12-23T15:49:56.237Z,6.33
2017-12-23T15:52:23.886Z,6.33
2017-12-23T15:54:51.488Z,6.35
2017-12-23T15:57:19.067Z,6.37
2017-12-23T15:59:46.621Z,6.33
2017-12-23T16:02:14.317Z,6.30
2017-12-23T16:04:41.893Z,6.31
2017-12-23T16:07:09.541Z,6.34
2017-12-23T16:09:37.127Z,6.33
2017-12-23T16:12:04.684Z,6.34
2017-12-23T16:14:32.235Z,6.41
2017-12-23T16:16:59.986Z,6.37
2017-12-23T16:19:33.714Z,6.39
2017-12-23T16:22:01.297Z,6.46
2017-12-23T16:24:28.864Z,6.40
2017-12-23T16:26:56.410Z,6.42
2017-12-23T16:29:24.098Z,6.40
2017-12-23T16:31:51.684Z,6.43
2017-12-23T16:36:53.145Z,6.49
2017-12-23T16:39:20.718Z,6.44
2017-12-23T16:41:48.260Z,6.50
2017-12-23T16:44:16.112Z,6.54
2017-12-23T16:46:43.646Z,6.48
2017-12-23T16:49:11.574Z,6.44
2017-12-23T16:51:39.182Z,6.43
2017-12-23T16:54:06.834Z,6.47
2017-12-23T16:56:34.396Z,6.48
2017-12-23T16:59:02.033Z,6.49
2017-12-23T17:01:29.593Z,6.53
2017-12-23T17:16:06.580Z,6.61
2017-12-23T17:18:34.126Z,6.57
2017-12-23T17:21:01.689Z,6.68
2017-12-23T17:23:29.256Z,6.66
2017-12-23T17:25:56.809Z,6.66
2017-12-23T17:28:36.071Z,6.57
2017-12-23T17:31:03.618Z,6.65
2017-12-23T17:33:31.174Z,6.61
2017-12-23T17:35:58.738Z,6.52
2017-12-23T17:38:26.295Z,6.52
2017-12-23T17:40:53.934Z,6.54
2017-12-23T17:43:22.120Z,6.58
2017-12-23T17:45:49.678Z,6.55
2017-12-23T17:48:17.285Z,6.49
2017-12-23T17:50:44.833Z,6.53
2017-12-23T17:53:12.390Z,6.54
2017-12-23T17:55:40.161Z,6.51
2017-12-23T17:58:07.851Z,6.51
2017-12-23T18:00:35.390Z,6.52
2017-12-23T18:03:02.977Z,6.55
2017-12-23T18:05:30.684Z,6.61
2017-12-23T18:07:58.220Z,6.59
2017-12-23T18:10:25.852Z,6.62
2017-12-23T18:12:53.420Z,6.64
2017-12-23T18:15:21.260Z,6.43
2017-12-23T18:17:48.865Z,6.67
2017-12-23T18:20:16.446Z,6.74
2017-12-23T18:22:44.056Z,6.70
2017-12-23T18:25:11.866Z,6.71
2017-12-23T18:27:39.424Z,6.64
2017-12-23T18:30:07.298Z,6.62
2017-12-23T18:32:34.868Z,6.65
2017-12-23T18:35:02.412Z,6.65
2017-12-23T18:37:29.964Z,6.64
2017-12-23T18:39:57.514Z,6.69
2017-12-23T18:42:25.407Z,6.69
2017-12-23T18:44:53.004Z,6.68
2017-12-23T18:47:20.563Z,6.64
2017-12-23T18:49:48.093Z,6.73
2017-12-23T18:52:15.748Z,6.71
2017-12-23T19:40:05.565Z,6.53
2017-12-23T19:42:33.119Z,6.55
2017-12-23T19:45:00.764Z,6.60
2017-12-23T19:47:30.543Z,6.58
2017-12-23T19:49:58.288Z,6.62
2017-12-23T19:52:25.886Z,6.64
2017-12-23T19:54:53.501Z,6.65
2017-12-23T19:57:21.086Z,6.64
2017-12-23T19:59:48.712Z,6.65
2017-12-23T20:02:16.365Z,6.70
2017-12-23T20:04:43.919Z,6.65
2017-12-23T20:07:11.908Z,6.58
2017-12-23T20:09:39.451Z,6.54
2017-12-23T20:12:07.023Z,6.48
2017-12-23T20:14:34.605Z,6.46
2017-12-23T20:17:02.170Z,6.42
2017-12-23T20:19:30.209Z,6.46
2017-12-23T20:21:57.778Z,6.43
2017-12-23T20:24:25.341Z,6.41
2017-12-23T20:26:52.917Z,6.39
2017-12-23T20:29:20.535Z,6.39
2017-12-23T20:31:48.082Z,6.37
2017-12-23T20:34:15.643Z,6.37
2017-12-23T20:36:43.422Z,6.33
2017-12-23T20:39:12.081Z,6.30
2017-12-23T20:41:39.625Z,6.28
2017-12-23T20:44:07.181Z,6.20
2017-12-23T20:46:34.762Z,6.13
2017-12-23T20:49:02.318Z,6.09
2017-12-23T20:51:30.847Z,6.03
2017-12-23T20:53:58.398Z,5.92
2017-12-23T20:56:25.955Z,5.79
2017-12-23T20:58:53.604Z,5.71
2017-12-23T21:01:21.153Z,5.61
2017-12-23T21:03:48.747Z,5.59
2017-12-23T21:06:16.565Z,5.57
2017-12-23T21:08:44.140Z,5.53
2017-12-23T21:11:11.719Z,5.52
2017-12-23T21:13:39.285Z,5.53
2017-12-23T21:16:06.895Z,5.53
2017-12-23T21:18:34.451Z,5.48
2017-12-23T21:21:02.048Z,5.46
2017-12-23T21:23:30.294Z,5.51
2017-12-23T21:25:58.005Z,5.50
2017-12-23T21:28:25.561Z,5.52
2017-12-23T21:30:53.474Z,5.48
2017-12-23T21:33:21.499Z,5.47
2017-12-23T21:35:49.113Z,5.43
2017-12-23T21:38:16.686Z,5.43
2017-12-23T21:40:44.230Z,5.39
2017-12-23T21:43:12.394Z,5.32
2017-12-23T21:45:40.880Z,5.30
2017-12-23T21:48:08.632Z,5.29
2017-12-23T21:50:36.209Z,5.26
2017-12-23T21:53:03.765Z,5.26
2017-12-23T21:55:31.872Z,5.29
2017-12-23T21:57:59.489Z,5.31
2017-12-23T22:00:27.069Z,5.26
2017-12-23T22:02:54.620Z,5.26
2017-12-23T22:05:22.347Z,5.24
2017-12-23T22:07:49.981Z,5.27
2017-12-23T22:10:17.614Z,5.25
2017-12-23T22:12:45.237Z,5.28
2017-12-23T22:15:12.801Z,5.26
2017-12-23T22:17:40.356Z,5.28
2017-12-23T22:20:07.939Z,5.31
2017-12-23T22:22:35.483Z,5.30
2017-12-23T22:25:03.065Z,5.31
2017-12-23T22:27:30.643Z,5.29
2017-12-23T22:29:58.253Z,5.32
2017-12-23T22:32:25.777Z,5.29
2017-12-23T22:34:53.385Z,5.31
2017-12-23T22:37:21.159Z,5.29
2017-12-23T22:39:48.724Z,5.28
2017-12-23T22:42:28.155Z,5.31
2017-12-23T22:44:55.720Z,5.31
2017-12-23T22:47:23.431Z,5.33
2017-12-23T22:49:51.022Z,5.31
2017-12-23T22:52:18.601Z,5.33
2017-12-23T22:54:46.153Z,5.32
2017-12-23T22:57:14.342Z,5.33
2017-12-23T22:59:41.970Z,5.34
2017-12-23T23:02:09.522Z,5.36
2017-12-23T23:04:37.086Z,5.42
2017-12-23T23:07:04.696Z,5.43
2017-12-23T23:09:32.334Z,5.45
2017-12-23T23:12:00.010Z,5.48
2017-12-23T23:14:27.801Z,5.46
2017-12-23T23:16:55.366Z,5.44
2017-12-23T23:19:23.066Z,5.45
2017-12-23T23:21:50.653Z,5.47
2017-12-23T23:24:18.313Z,5.48
2017-12-23T23:26:45.874Z,5.44
2017-12-23T23:29:13.509Z,5.45
2017-12-23T23:31:41.979Z,5.48
2017-12-23T23:34:09.552Z,5.48
2017-12-23T23:36:37.131Z,5.47
2017-12-23T23:39:04.730Z,5.48
2017-12-23T23:41:32.399Z,5.46
2017-12-23T23:44:00.271Z,5.46
2017-12-23T23:46:27.862Z,5.44
2017-12-23T23:48:56.176Z,5.45
2017-12-23T23:51:23.827Z,5.45
2017-12-23T23:53:51.387Z,5.42
2017-12-23T23:56:18.933Z,5.42
2017-12-23T23:58:47.917Z,5.39
